メインページ
METAR-TAF:

METAR-TAF

空港 :

カーブル, アフガニスタン

カーブル国際空港

緯度: 34-38N, 経度: 069-12E, 海抜: 1789m

現時点の気象観測

当レポートは10分前の20:50(UTC)に作成
西/北西の風 5kt
気温 11°C
湿度 76%
気圧 1021 hPa
視程10km以上
1,500メートル以下は雲なし、積乱雲なし

METAR: OAKB 292050Z 30005KT CAVOK 11/07 Q1021 NOSIG RMK BLU BLU

時間: 01:30 (21:00 UTC)

予報

当レポートは3時間55分前の17:05(UTC)に作成
予報は29日の 18時(UTC)から 30日の 18時(UTC)まで有効
変向風 2kt
視程10km以上
1,500メートル以下は雲なし、積乱雲なし
30日の 02時(UTC)から 30日の 05時(UTC)まで一時的に
視程: 5000m
煙霧
30日の 09時(UTC)から 30日の 11時(UTC)まで徐々に
視程10km以上
高度5000ftの雲は散在している
高度10000ftの千切れ雲あり
近辺でにわか雨
確率 30% :
30日の 12時(UTC)から 30日の 16時(UTC)まで一時的に
北/北西の風 12kt、最大25ktの突風を伴う
高度4000ftの雲は散在している, 積乱雲.
高度8000ftの千切れ雲あり
激しい雷雨, 小雨

TAF: OAKB 291705Z 2918/3018 VRB02KT CAVOK TEMPO 3002/3005 5000 HZ BECMG 3009/3011 9999 VCSH SCT050 BKN100 PROB30 TEMPO 3012/3016 33012G25KT -TSRA SCT040CB BKN080

4,000以上の空港の気象観測と天気予報(METAR報とTAF報)

利用可能な観測所は地図上に黄色い丸と赤い丸で示す。

丸の上にカーソルを重ねると観測所名を参照できる。

次にクリックすると気象観測と天気予報を参照できる。

マップの切り替え:黒色「×」印の緑ボタンをクリックして拡大、「-」印の緑ボタンをクリックして縮小、緑色の三角印をクリックして隣りの地図に切り替え


METAR-TAF: